sensor_id;sensor_type;location;lat;lon;timestamp;P1;durP1;ratioP1;P2;durP2;ratioP2
21352;SDS011;10834;52.268;6.770;2022-12-04T00:00:54;72.20;;;31.10;;
21352;SDS011;10834;52.268;6.770;2022-12-04T00:03:40;67.23;;;28.97;;
21352;SDS011;10834;52.268;6.770;2022-12-04T00:06:26;63.80;;;29.37;;
21352;SDS011;10834;52.268;6.770;2022-12-04T00:09:13;62.87;;;28.80;;
21352;SDS011;10834;52.268;6.770;2022-12-04T00:11:59;57.83;;;28.80;;
21352;SDS011;10834;52.268;6.770;2022-12-04T00:14:45;67.47;;;29.80;;
21352;SDS011;10834;52.268;6.770;2022-12-04T00:17:31;69.53;;;29.37;;
21352;SDS011;10834;52.268;6.770;2022-12-04T00:20:18;63.93;;;29.90;;
21352;SDS011;10834;52.268;6.770;2022-12-04T00:23:04;61.33;;;29.53;;
21352;SDS011;10834;52.268;6.770;2022-12-04T00:25:50;73.73;;;29.70;;
21352;SDS011;10834;52.268;6.770;2022-12-04T00:28:37;67.33;;;29.50;;
21352;SDS011;10834;52.268;6.770;2022-12-04T00:31:25;70.67;;;30.23;;
21352;SDS011;10834;52.268;6.770;2022-12-04T00:34:13;63.53;;;28.90;;
21352;SDS011;10834;52.268;6.770;2022-12-04T00:36:59;63.63;;;28.67;;
21352;SDS011;10834;52.268;6.770;2022-12-04T00:39:45;67.00;;;29.00;;
21352;SDS011;10834;52.268;6.770;2022-12-04T00:42:31;63.53;;;28.90;;
21352;SDS011;10834;52.268;6.770;2022-12-04T00:45:17;73.00;;;29.97;;
21352;SDS011;10834;52.268;6.770;2022-12-04T00:48:03;75.87;;;30.57;;
21352;SDS011;10834;52.268;6.770;2022-12-04T00:50:49;65.67;;;28.57;;
21352;SDS011;10834;52.268;6.770;2022-12-04T00:53:36;67.23;;;29.73;;
21352;SDS011;10834;52.268;6.770;2022-12-04T00:56:24;69.77;;;31.13;;
21352;SDS011;10834;52.268;6.770;2022-12-04T00:59:12;67.53;;;29.60;;
21352;SDS011;10834;52.268;6.770;2022-12-04T01:01:58;65.60;;;29.37;;
21352;SDS011;10834;52.268;6.770;2022-12-04T01:04:44;68.10;;;30.73;;
21352;SDS011;10834;52.268;6.770;2022-12-04T01:07:30;62.83;;;29.20;;
21352;SDS011;10834;52.268;6.770;2022-12-04T01:10:16;66.57;;;30.37;;
21352;SDS011;10834;52.268;6.770;2022-12-04T01:13:02;66.73;;;30.57;;
21352;SDS011;10834;52.268;6.770;2022-12-04T01:15:48;67.03;;;29.80;;
21352;SDS011;10834;52.268;6.770;2022-12-04T01:18:34;60.73;;;27.87;;
21352;SDS011;10834;52.268;6.770;2022-12-04T01:21:20;61.87;;;28.53;;
21352;SDS011;10834;52.268;6.770;2022-12-04T01:24:06;65.37;;;28.50;;
21352;SDS011;10834;52.268;6.770;2022-12-04T01:26:53;65.03;;;27.90;;
21352;SDS011;10834;52.268;6.770;2022-12-04T01:29:39;70.87;;;30.70;;
21352;SDS011;10834;52.268;6.770;2022-12-04T01:32:25;73.60;;;30.63;;
21352;SDS011;10834;52.268;6.770;2022-12-04T01:35:11;65.00;;;28.67;;
21352;SDS011;10834;52.268;6.770;2022-12-04T01:37:57;57.73;;;29.43;;
21352;SDS011;10834;52.268;6.770;2022-12-04T01:40:43;67.20;;;29.17;;
21352;SDS011;10834;52.268;6.770;2022-12-04T01:43:30;72.47;;;28.97;;
21352;SDS011;10834;52.268;6.770;2022-12-04T01:46:16;66.13;;;29.47;;
21352;SDS011;10834;52.268;6.770;2022-12-04T01:49:03;62.83;;;28.70;;
21352;SDS011;10834;52.268;6.770;2022-12-04T01:51:52;63.70;;;29.20;;
21352;SDS011;10834;52.268;6.770;2022-12-04T01:54:44;70.93;;;30.03;;
21352;SDS011;10834;52.268;6.770;2022-12-04T01:57:34;60.00;;;29.33;;
21352;SDS011;10834;52.268;6.770;2022-12-04T02:00:20;66.30;;;29.63;;
21352;SDS011;10834;52.268;6.770;2022-12-04T02:03:07;67.83;;;30.03;;
21352;SDS011;10834;52.268;6.770;2022-12-04T02:05:53;64.77;;;28.40;;
21352;SDS011;10834;52.268;6.770;2022-12-04T02:08:39;63.13;;;30.13;;
21352;SDS011;10834;52.268;6.770;2022-12-04T02:11:41;73.63;;;30.97;;
21352;SDS011;10834;52.268;6.770;2022-12-04T02:18:00;72.80;;;30.13;;
21352;SDS011;10834;52.268;6.770;2022-12-04T02:20:56;67.80;;;31.33;;
21352;SDS011;10834;52.268;6.770;2022-12-04T02:27:00;63.87;;;29.77;;
21352;SDS011;10834;52.268;6.770;2022-12-04T02:36:06;62.27;;;29.23;;
21352;SDS011;10834;52.268;6.770;2022-12-04T02:42:13;64.80;;;29.47;;
21352;SDS011;10834;52.268;6.770;2022-12-04T02:45:14;70.80;;;29.43;;
21352;SDS011;10834;52.268;6.770;2022-12-04T02:48:06;59.07;;;27.03;;
21352;SDS011;10834;52.268;6.770;2022-12-04T02:50:53;64.20;;;27.87;;
21352;SDS011;10834;52.268;6.770;2022-12-04T02:53:52;60.33;;;28.90;;
21352;SDS011;10834;52.268;6.770;2022-12-04T02:56:42;69.87;;;28.93;;
21352;SDS011;10834;52.268;6.770;2022-12-04T02:59:32;65.20;;;29.27;;
21352;SDS011;10834;52.268;6.770;2022-12-04T03:02:57;61.27;;;27.57;;
21352;SDS011;10834;52.268;6.770;2022-12-04T03:05:50;63.00;;;28.60;;
21352;SDS011;10834;52.268;6.770;2022-12-04T03:08:42;61.30;;;26.57;;
21352;SDS011;10834;52.268;6.770;2022-12-04T03:11:36;66.00;;;26.97;;
21352;SDS011;10834;52.268;6.770;2022-12-04T03:14:26;61.70;;;27.87;;
21352;SDS011;10834;52.268;6.770;2022-12-04T03:17:24;65.57;;;29.33;;
21352;SDS011;10834;52.268;6.770;2022-12-04T03:20:15;62.90;;;28.53;;
21352;SDS011;10834;52.268;6.770;2022-12-04T03:23:08;62.90;;;27.77;;
21352;SDS011;10834;52.268;6.770;2022-12-04T03:26:02;57.60;;;27.57;;
21352;SDS011;10834;52.268;6.770;2022-12-04T03:29:10;72.57;;;29.10;;
21352;SDS011;10834;52.268;6.770;2022-12-04T03:32:20;65.03;;;27.27;;
21352;SDS011;10834;52.268;6.770;2022-12-04T03:35:18;59.97;;;28.33;;
21352;SDS011;10834;52.268;6.770;2022-12-04T03:38:11;63.53;;;28.03;;
21352;SDS011;10834;52.268;6.770;2022-12-04T03:41:06;63.70;;;29.60;;
21352;SDS011;10834;52.268;6.770;2022-12-04T03:44:21;58.97;;;26.60;;
21352;SDS011;10834;52.268;6.770;2022-12-04T03:47:13;65.10;;;27.97;;
21352;SDS011;10834;52.268;6.770;2022-12-04T03:50:07;69.53;;;28.40;;
21352;SDS011;10834;52.268;6.770;2022-12-04T03:53:06;63.63;;;29.53;;
21352;SDS011;10834;52.268;6.770;2022-12-04T03:59:02;66.77;;;28.53;;
21352;SDS011;10834;52.268;6.770;2022-12-04T04:01:53;58.63;;;25.30;;
21352;SDS011;10834;52.268;6.770;2022-12-04T04:04:43;61.70;;;28.63;;
21352;SDS011;10834;52.268;6.770;2022-12-04T04:07:37;57.37;;;26.60;;
21352;SDS011;10834;52.268;6.770;2022-12-04T04:11:17;61.43;;;26.83;;
21352;SDS011;10834;52.268;6.770;2022-12-04T04:17:56;66.93;;;27.87;;
21352;SDS011;10834;52.268;6.770;2022-12-04T04:21:01;57.03;;;26.97;;
21352;SDS011;10834;52.268;6.770;2022-12-04T04:24:06;62.90;;;27.10;;
21352;SDS011;10834;52.268;6.770;2022-12-04T04:27:03;59.87;;;26.37;;
21352;SDS011;10834;52.268;6.770;2022-12-04T04:29:50;55.97;;;26.77;;
21352;SDS011;10834;52.268;6.770;2022-12-04T04:39:13;61.87;;;26.47;;
21352;SDS011;10834;52.268;6.770;2022-12-04T04:45:07;59.57;;;27.87;;
21352;SDS011;10834;52.268;6.770;2022-12-04T04:47:57;66.73;;;27.37;;
21352;SDS011;10834;52.268;6.770;2022-12-04T04:50:48;63.40;;;26.40;;
21352;SDS011;10834;52.268;6.770;2022-12-04T04:53:39;54.43;;;24.63;;
21352;SDS011;10834;52.268;6.770;2022-12-04T04:56:29;60.53;;;25.47;;
21352;SDS011;10834;52.268;6.770;2022-12-04T04:59:16;70.57;;;29.07;;
21352;SDS011;10834;52.268;6.770;2022-12-04T05:02:02;60.33;;;26.80;;
21352;SDS011;10834;52.268;6.770;2022-12-04T05:04:48;67.77;;;28.70;;
21352;SDS011;10834;52.268;6.770;2022-12-04T05:07:34;64.63;;;28.20;;
21352;SDS011;10834;52.268;6.770;2022-12-04T05:10:20;67.17;;;29.53;;
21352;SDS011;10834;52.268;6.770;2022-12-04T05:13:07;62.53;;;27.60;;
21352;SDS011;10834;52.268;6.770;2022-12-04T05:18:45;68.13;;;27.43;;
21352;SDS011;10834;52.268;6.770;2022-12-04T05:21:50;59.60;;;27.10;;
21352;SDS011;10834;52.268;6.770;2022-12-04T05:24:36;68.87;;;30.40;;
21352;SDS011;10834;52.268;6.770;2022-12-04T05:27:23;59.97;;;27.27;;
21352;SDS011;10834;52.268;6.770;2022-12-04T05:30:10;57.43;;;25.97;;
21352;SDS011;10834;52.268;6.770;2022-12-04T05:32:56;58.70;;;27.60;;
21352;SDS011;10834;52.268;6.770;2022-12-04T05:35:42;65.30;;;27.93;;
21352;SDS011;10834;52.268;6.770;2022-12-04T05:38:29;67.30;;;27.70;;
21352;SDS011;10834;52.268;6.770;2022-12-04T05:41:15;64.17;;;28.57;;
21352;SDS011;10834;52.268;6.770;2022-12-04T05:44:01;62.80;;;27.97;;
21352;SDS011;10834;52.268;6.770;2022-12-04T05:46:47;58.97;;;27.33;;
21352;SDS011;10834;52.268;6.770;2022-12-04T05:49:33;61.27;;;27.33;;
21352;SDS011;10834;52.268;6.770;2022-12-04T05:52:20;69.77;;;29.00;;
21352;SDS011;10834;52.268;6.770;2022-12-04T05:55:06;62.80;;;27.40;;
21352;SDS011;10834;52.268;6.770;2022-12-04T05:57:52;67.23;;;29.30;;
21352;SDS011;10834;52.268;6.770;2022-12-04T06:00:38;59.50;;;27.10;;
21352;SDS011;10834;52.268;6.770;2022-12-04T06:03:24;66.00;;;28.13;;
21352;SDS011;10834;52.268;6.770;2022-12-04T06:06:13;64.90;;;27.80;;
21352;SDS011;10834;52.268;6.770;2022-12-04T06:09:00;59.17;;;27.43;;
21352;SDS011;10834;52.268;6.770;2022-12-04T06:11:46;65.33;;;29.47;;
21352;SDS011;10834;52.268;6.770;2022-12-04T06:14:32;64.43;;;26.17;;
21352;SDS011;10834;52.268;6.770;2022-12-04T06:17:21;61.10;;;27.13;;
21352;SDS011;10834;52.268;6.770;2022-12-04T06:20:07;69.57;;;27.17;;
21352;SDS011;10834;52.268;6.770;2022-12-04T06:22:53;62.97;;;27.20;;
21352;SDS011;10834;52.268;6.770;2022-12-04T06:25:39;70.00;;;27.50;;
21352;SDS011;10834;52.268;6.770;2022-12-04T06:28:25;59.87;;;27.13;;
21352;SDS011;10834;52.268;6.770;2022-12-04T06:31:12;62.63;;;26.80;;
21352;SDS011;10834;52.268;6.770;2022-12-04T06:33:59;62.40;;;26.70;;
21352;SDS011;10834;52.268;6.770;2022-12-04T06:36:45;54.70;;;25.57;;
21352;SDS011;10834;52.268;6.770;2022-12-04T06:39:31;67.83;;;26.33;;
21352;SDS011;10834;52.268;6.770;2022-12-04T06:42:17;58.97;;;27.03;;
21352;SDS011;10834;52.268;6.770;2022-12-04T06:45:03;59.37;;;26.43;;
21352;SDS011;10834;52.268;6.770;2022-12-04T06:47:50;59.97;;;25.93;;
21352;SDS011;10834;52.268;6.770;2022-12-04T06:50:36;56.70;;;26.17;;
21352;SDS011;10834;52.268;6.770;2022-12-04T06:53:23;59.07;;;23.63;;
21352;SDS011;10834;52.268;6.770;2022-12-04T06:56:10;53.63;;;25.43;;
21352;SDS011;10834;52.268;6.770;2022-12-04T06:58:59;60.33;;;24.90;;
21352;SDS011;10834;52.268;6.770;2022-12-04T07:01:46;57.30;;;25.03;;
21352;SDS011;10834;52.268;6.770;2022-12-04T07:04:32;58.30;;;25.27;;
21352;SDS011;10834;52.268;6.770;2022-12-04T07:07:19;58.00;;;25.60;;
21352;SDS011;10834;52.268;6.770;2022-12-04T07:10:05;54.97;;;24.57;;
21352;SDS011;10834;52.268;6.770;2022-12-04T07:12:51;52.37;;;24.33;;
21352;SDS011;10834;52.268;6.770;2022-12-04T07:15:39;48.73;;;24.00;;
21352;SDS011;10834;52.268;6.770;2022-12-04T07:18:26;49.07;;;22.57;;
21352;SDS011;10834;52.268;6.770;2022-12-04T07:21:14;43.23;;;21.47;;
21352;SDS011;10834;52.268;6.770;2022-12-04T07:24:02;53.10;;;22.57;;
21352;SDS011;10834;52.268;6.770;2022-12-04T07:26:49;47.27;;;23.20;;
21352;SDS011;10834;52.268;6.770;2022-12-04T07:29:35;46.10;;;22.33;;
21352;SDS011;10834;52.268;6.770;2022-12-04T07:32:21;49.77;;;22.43;;
21352;SDS011;10834;52.268;6.770;2022-12-04T07:35:07;43.53;;;20.57;;
21352;SDS011;10834;52.268;6.770;2022-12-04T07:37:53;47.73;;;22.63;;
21352;SDS011;10834;52.268;6.770;2022-12-04T07:40:39;47.73;;;19.93;;
21352;SDS011;10834;52.268;6.770;2022-12-04T07:43:25;48.23;;;19.57;;
21352;SDS011;10834;52.268;6.770;2022-12-04T07:46:14;47.57;;;20.67;;
21352;SDS011;10834;52.268;6.770;2022-12-04T07:49:02;45.93;;;20.13;;
21352;SDS011;10834;52.268;6.770;2022-12-04T07:51:48;44.50;;;19.47;;
21352;SDS011;10834;52.268;6.770;2022-12-04T07:54:34;36.07;;;18.13;;
21352;SDS011;10834;52.268;6.770;2022-12-04T07:57:21;36.37;;;17.50;;
21352;SDS011;10834;52.268;6.770;2022-12-04T08:00:07;42.37;;;18.00;;
21352;SDS011;10834;52.268;6.770;2022-12-04T08:02:54;40.20;;;16.53;;
21352;SDS011;10834;52.268;6.770;2022-12-04T08:05:40;33.73;;;17.47;;
21352;SDS011;10834;52.268;6.770;2022-12-04T08:08:26;38.47;;;16.50;;
21352;SDS011;10834;52.268;6.770;2022-12-04T08:11:14;33.77;;;15.90;;
21352;SDS011;10834;52.268;6.770;2022-12-04T08:14:02;22.43;;;12.63;;
21352;SDS011;10834;52.268;6.770;2022-12-04T08:16:49;32.37;;;14.97;;
21352;SDS011;10834;52.268;6.770;2022-12-04T08:19:35;26.87;;;14.63;;
21352;SDS011;10834;52.268;6.770;2022-12-04T08:22:21;30.23;;;13.23;;
21352;SDS011;10834;52.268;6.770;2022-12-04T08:25:08;31.17;;;13.97;;
21352;SDS011;10834;52.268;6.770;2022-12-04T08:27:54;30.57;;;15.20;;
21352;SDS011;10834;52.268;6.770;2022-12-04T08:30:40;31.40;;;15.63;;
21352;SDS011;10834;52.268;6.770;2022-12-04T08:33:26;27.40;;;14.63;;
21352;SDS011;10834;52.268;6.770;2022-12-04T08:36:13;29.33;;;13.87;;
21352;SDS011;10834;52.268;6.770;2022-12-04T08:39:01;31.77;;;13.57;;
21352;SDS011;10834;52.268;6.770;2022-12-04T08:41:48;30.10;;;15.60;;
21352;SDS011;10834;52.268;6.770;2022-12-04T08:44:35;27.83;;;14.00;;
21352;SDS011;10834;52.268;6.770;2022-12-04T08:47:21;28.47;;;14.03;;
21352;SDS011;10834;52.268;6.770;2022-12-04T08:50:07;22.97;;;12.80;;
21352;SDS011;10834;52.268;6.770;2022-12-04T08:52:54;36.57;;;15.87;;
21352;SDS011;10834;52.268;6.770;2022-12-04T08:55:40;28.57;;;14.47;;
21352;SDS011;10834;52.268;6.770;2022-12-04T08:58:26;29.80;;;12.77;;
21352;SDS011;10834;52.268;6.770;2022-12-04T09:01:12;23.63;;;12.77;;
21352;SDS011;10834;52.268;6.770;2022-12-04T09:03:59;25.97;;;13.13;;
21352;SDS011;10834;52.268;6.770;2022-12-04T09:06:46;28.40;;;12.97;;
21352;SDS011;10834;52.268;6.770;2022-12-04T09:09:32;23.70;;;12.17;;
21352;SDS011;10834;52.268;6.770;2022-12-04T09:12:18;26.03;;;12.27;;
21352;SDS011;10834;52.268;6.770;2022-12-04T09:15:04;24.93;;;11.63;;
21352;SDS011;10834;52.268;6.770;2022-12-04T09:17:51;33.93;;;13.33;;
21352;SDS011;10834;52.268;6.770;2022-12-04T09:20:37;25.53;;;11.47;;
21352;SDS011;10834;52.268;6.770;2022-12-04T09:23:23;25.20;;;12.67;;
21352;SDS011;10834;52.268;6.770;2022-12-04T09:29:05;26.33;;;13.20;;
21352;SDS011;10834;52.268;6.770;2022-12-04T09:31:52;29.93;;;15.90;;
21352;SDS011;10834;52.268;6.770;2022-12-04T09:34:38;31.87;;;16.20;;
21352;SDS011;10834;52.268;6.770;2022-12-04T09:37:24;35.77;;;20.20;;
21352;SDS011;10834;52.268;6.770;2022-12-04T09:43:43;20.07;;;11.30;;
21352;SDS011;10834;52.268;6.770;2022-12-04T09:46:48;23.57;;;12.53;;
21352;SDS011;10834;52.268;6.770;2022-12-04T09:49:46;26.43;;;11.33;;
21352;SDS011;10834;52.268;6.770;2022-12-04T09:52:41;22.17;;;12.13;;
21352;SDS011;10834;52.268;6.770;2022-12-04T09:55:34;22.57;;;11.57;;
21352;SDS011;10834;52.268;6.770;2022-12-04T09:58:40;24.93;;;13.03;;
21352;SDS011;10834;52.268;6.770;2022-12-04T10:01:44;26.30;;;12.27;;
21352;SDS011;10834;52.268;6.770;2022-12-04T10:04:32;26.53;;;13.67;;
21352;SDS011;10834;52.268;6.770;2022-12-04T10:25:46;23.30;;;12.57;;
21352;SDS011;10834;52.268;6.770;2022-12-04T10:28:36;21.73;;;12.33;;
21352;SDS011;10834;52.268;6.770;2022-12-04T10:31:27;30.10;;;12.90;;
21352;SDS011;10834;52.268;6.770;2022-12-04T10:34:26;23.47;;;12.67;;
21352;SDS011;10834;52.268;6.770;2022-12-04T10:37:14;24.33;;;13.77;;
21352;SDS011;10834;52.268;6.770;2022-12-04T10:40:22;26.33;;;14.00;;
21352;SDS011;10834;52.268;6.770;2022-12-04T10:43:15;25.10;;;12.70;;
21352;SDS011;10834;52.268;6.770;2022-12-04T10:46:27;29.43;;;14.27;;
21352;SDS011;10834;52.268;6.770;2022-12-04T10:49:16;25.60;;;13.80;;
21352;SDS011;10834;52.268;6.770;2022-12-04T10:52:04;23.50;;;12.60;;
21352;SDS011;10834;52.268;6.770;2022-12-04T10:54:53;25.40;;;13.27;;
21352;SDS011;10834;52.268;6.770;2022-12-04T10:57:44;28.50;;;14.93;;
21352;SDS011;10834;52.268;6.770;2022-12-04T11:00:32;26.70;;;14.17;;
21352;SDS011;10834;52.268;6.770;2022-12-04T11:03:28;28.60;;;14.83;;
21352;SDS011;10834;52.268;6.770;2022-12-04T11:06:14;32.70;;;15.80;;
21352;SDS011;10834;52.268;6.770;2022-12-04T11:09:01;27.70;;;16.57;;
21352;SDS011;10834;52.268;6.770;2022-12-04T11:11:48;33.80;;;15.07;;
21352;SDS011;10834;52.268;6.770;2022-12-04T11:14:35;29.80;;;14.73;;
21352;SDS011;10834;52.268;6.770;2022-12-04T11:17:21;37.07;;;15.00;;
21352;SDS011;10834;52.268;6.770;2022-12-04T11:20:12;33.10;;;15.57;;
21352;SDS011;10834;52.268;6.770;2022-12-04T11:23:04;35.10;;;16.03;;
21352;SDS011;10834;52.268;6.770;2022-12-04T11:25:51;37.67;;;17.93;;
21352;SDS011;10834;52.268;6.770;2022-12-04T11:28:42;38.17;;;16.87;;
21352;SDS011;10834;52.268;6.770;2022-12-04T11:31:34;31.13;;;16.53;;
21352;SDS011;10834;52.268;6.770;2022-12-04T11:34:21;38.33;;;17.43;;
21352;SDS011;10834;52.268;6.770;2022-12-04T11:37:21;35.77;;;18.50;;
21352;SDS011;10834;52.268;6.770;2022-12-04T11:40:14;33.20;;;16.77;;
21352;SDS011;10834;52.268;6.770;2022-12-04T11:43:12;44.03;;;17.63;;
21352;SDS011;10834;52.268;6.770;2022-12-04T11:46:04;41.23;;;19.63;;
21352;SDS011;10834;52.268;6.770;2022-12-04T11:48:51;40.90;;;19.47;;
21352;SDS011;10834;52.268;6.770;2022-12-04T11:54:49;43.87;;;19.43;;
21352;SDS011;10834;52.268;6.770;2022-12-04T12:00:38;48.10;;;20.57;;
21352;SDS011;10834;52.268;6.770;2022-12-04T12:10:02;65.87;;;29.10;;
21352;SDS011;10834;52.268;6.770;2022-12-04T12:19:31;46.47;;;20.90;;
21352;SDS011;10834;52.268;6.770;2022-12-04T12:31:53;51.80;;;23.47;;
21352;SDS011;10834;52.268;6.770;2022-12-04T12:34:47;49.97;;;22.33;;
21352;SDS011;10834;52.268;6.770;2022-12-04T12:37:38;47.80;;;22.40;;
21352;SDS011;10834;52.268;6.770;2022-12-04T12:40:32;40.17;;;19.73;;
21352;SDS011;10834;52.268;6.770;2022-12-04T12:43:23;40.20;;;19.57;;
21352;SDS011;10834;52.268;6.770;2022-12-04T12:46:23;43.67;;;19.53;;
21352;SDS011;10834;52.268;6.770;2022-12-04T12:49:17;42.97;;;19.60;;
21352;SDS011;10834;52.268;6.770;2022-12-04T12:55:19;43.87;;;21.00;;
21352;SDS011;10834;52.268;6.770;2022-12-04T13:01:05;48.30;;;20.70;;
21352;SDS011;10834;52.268;6.770;2022-12-04T13:07:02;52.67;;;21.33;;
21352;SDS011;10834;52.268;6.770;2022-12-04T13:10:04;56.67;;;26.23;;
21352;SDS011;10834;52.268;6.770;2022-12-04T13:12:59;46.23;;;20.90;;
21352;SDS011;10834;52.268;6.770;2022-12-04T13:16:04;50.33;;;24.80;;
21352;SDS011;10834;52.268;6.770;2022-12-04T13:19:12;41.07;;;20.87;;
21352;SDS011;10834;52.268;6.770;2022-12-04T13:22:30;47.07;;;20.40;;
21352;SDS011;10834;52.268;6.770;2022-12-04T13:25:45;48.37;;;22.13;;
21352;SDS011;10834;52.268;6.770;2022-12-04T13:31:55;41.90;;;21.33;;
21352;SDS011;10834;52.268;6.770;2022-12-04T13:41:01;38.40;;;18.27;;
21352;SDS011;10834;52.268;6.770;2022-12-04T13:43:52;39.27;;;19.13;;
21352;SDS011;10834;52.268;6.770;2022-12-04T13:46:40;32.60;;;17.83;;
21352;SDS011;10834;52.268;6.770;2022-12-04T13:49:34;40.77;;;18.50;;
21352;SDS011;10834;52.268;6.770;2022-12-04T13:52:24;40.90;;;19.17;;
21352;SDS011;10834;52.268;6.770;2022-12-04T14:01:01;50.63;;;24.73;;
21352;SDS011;10834;52.268;6.770;2022-12-04T14:04:06;51.63;;;24.63;;
21352;SDS011;10834;52.268;6.770;2022-12-04T14:06:53;47.83;;;24.47;;
21352;SDS011;10834;52.268;6.770;2022-12-04T14:09:46;36.07;;;19.63;;
21352;SDS011;10834;52.268;6.770;2022-12-04T14:12:35;40.00;;;21.60;;
21352;SDS011;10834;52.268;6.770;2022-12-04T14:15:26;40.53;;;19.70;;
21352;SDS011;10834;52.268;6.770;2022-12-04T14:18:25;43.87;;;21.50;;
21352;SDS011;10834;52.268;6.770;2022-12-04T14:21:14;43.07;;;20.30;;
21352;SDS011;10834;52.268;6.770;2022-12-04T14:24:00;44.60;;;24.30;;
21352;SDS011;10834;52.268;6.770;2022-12-04T14:26:47;39.67;;;19.63;;
21352;SDS011;10834;52.268;6.770;2022-12-04T14:29:45;40.03;;;20.57;;
21352;SDS011;10834;52.268;6.770;2022-12-04T14:32:33;41.50;;;20.77;;
21352;SDS011;10834;52.268;6.770;2022-12-04T14:35:23;43.87;;;23.30;;
21352;SDS011;10834;52.268;6.770;2022-12-04T14:38:14;42.50;;;21.40;;
21352;SDS011;10834;52.268;6.770;2022-12-04T14:41:04;43.00;;;19.83;;
21352;SDS011;10834;52.268;6.770;2022-12-04T14:43:51;36.20;;;18.17;;
21352;SDS011;10834;52.268;6.770;2022-12-04T14:46:39;44.03;;;20.17;;
21352;SDS011;10834;52.268;6.770;2022-12-04T14:49:53;39.33;;;18.53;;
21352;SDS011;10834;52.268;6.770;2022-12-04T14:53:01;37.87;;;18.77;;
21352;SDS011;10834;52.268;6.770;2022-12-04T14:59:25;41.30;;;21.97;;
21352;SDS011;10834;52.268;6.770;2022-12-04T15:02:33;43.07;;;20.53;;
21352;SDS011;10834;52.268;6.770;2022-12-04T15:05:26;47.07;;;23.03;;
21352;SDS011;10834;52.268;6.770;2022-12-04T15:08:16;44.87;;;23.33;;
21352;SDS011;10834;52.268;6.770;2022-12-04T15:11:05;44.93;;;22.67;;
21352;SDS011;10834;52.268;6.770;2022-12-04T15:14:12;40.43;;;21.43;;
21352;SDS011;10834;52.268;6.770;2022-12-04T15:17:02;48.77;;;23.07;;
21352;SDS011;10834;52.268;6.770;2022-12-04T15:19:48;48.67;;;23.63;;
21352;SDS011;10834;52.268;6.770;2022-12-04T15:22:34;42.13;;;21.00;;
21352;SDS011;10834;52.268;6.770;2022-12-04T15:25:21;46.97;;;23.50;;
21352;SDS011;10834;52.268;6.770;2022-12-04T15:28:12;47.47;;;21.93;;
21352;SDS011;10834;52.268;6.770;2022-12-04T15:31:03;49.13;;;24.37;;
21352;SDS011;10834;52.268;6.770;2022-12-04T15:33:59;41.80;;;22.73;;
21352;SDS011;10834;52.268;6.770;2022-12-04T15:36:55;49.13;;;22.93;;
21352;SDS011;10834;52.268;6.770;2022-12-04T15:39:47;49.43;;;23.07;;
21352;SDS011;10834;52.268;6.770;2022-12-04T15:42:33;49.53;;;24.17;;
21352;SDS011;10834;52.268;6.770;2022-12-04T15:45:24;47.73;;;24.53;;
21352;SDS011;10834;52.268;6.770;2022-12-04T15:48:23;56.13;;;27.43;;
21352;SDS011;10834;52.268;6.770;2022-12-04T15:51:10;52.87;;;23.80;;
21352;SDS011;10834;52.268;6.770;2022-12-04T15:53:57;57.83;;;24.27;;
21352;SDS011;10834;52.268;6.770;2022-12-04T15:56:44;52.93;;;24.93;;
21352;SDS011;10834;52.268;6.770;2022-12-04T15:59:30;47.23;;;23.07;;
21352;SDS011;10834;52.268;6.770;2022-12-04T16:02:35;52.60;;;25.03;;
21352;SDS011;10834;52.268;6.770;2022-12-04T16:05:26;57.10;;;25.57;;
21352;SDS011;10834;52.268;6.770;2022-12-04T16:08:21;50.97;;;24.07;;
21352;SDS011;10834;52.268;6.770;2022-12-04T16:16:53;49.57;;;23.77;;
21352;SDS011;10834;52.268;6.770;2022-12-04T16:19:43;56.43;;;27.17;;
21352;SDS011;10834;52.268;6.770;2022-12-04T16:22:29;81.73;;;36.73;;
21352;SDS011;10834;52.268;6.770;2022-12-04T16:25:15;61.43;;;28.23;;
21352;SDS011;10834;52.268;6.770;2022-12-04T16:28:02;59.00;;;26.10;;
21352;SDS011;10834;52.268;6.770;2022-12-04T16:30:51;53.63;;;25.17;;
21352;SDS011;10834;52.268;6.770;2022-12-04T16:33:38;67.30;;;31.53;;
21352;SDS011;10834;52.268;6.770;2022-12-04T16:36:24;56.37;;;25.70;;
21352;SDS011;10834;52.268;6.770;2022-12-04T16:39:10;57.00;;;25.50;;
21352;SDS011;10834;52.268;6.770;2022-12-04T16:41:56;54.27;;;24.87;;
21352;SDS011;10834;52.268;6.770;2022-12-04T16:44:42;56.30;;;26.47;;
21352;SDS011;10834;52.268;6.770;2022-12-04T16:47:29;49.67;;;25.70;;
21352;SDS011;10834;52.268;6.770;2022-12-04T16:50:15;55.60;;;24.17;;
21352;SDS011;10834;52.268;6.770;2022-12-04T16:53:01;52.10;;;24.93;;
21352;SDS011;10834;52.268;6.770;2022-12-04T16:55:48;51.53;;;26.43;;
21352;SDS011;10834;52.268;6.770;2022-12-04T16:58:35;57.03;;;26.10;;
21352;SDS011;10834;52.268;6.770;2022-12-04T17:01:29;52.63;;;24.90;;
21352;SDS011;10834;52.268;6.770;2022-12-04T17:04:21;73.73;;;33.63;;
21352;SDS011;10834;52.268;6.770;2022-12-04T17:07:07;53.97;;;24.17;;
21352;SDS011;10834;52.268;6.770;2022-12-04T17:09:53;55.70;;;25.13;;
21352;SDS011;10834;52.268;6.770;2022-12-04T17:12:39;47.80;;;24.70;;
21352;SDS011;10834;52.268;6.770;2022-12-04T17:15:26;54.20;;;25.63;;
21352;SDS011;10834;52.268;6.770;2022-12-04T17:18:12;41.77;;;21.97;;
21352;SDS011;10834;52.268;6.770;2022-12-04T17:20:58;54.30;;;23.83;;
21352;SDS011;10834;52.268;6.770;2022-12-04T17:23:48;59.50;;;25.27;;
21352;SDS011;10834;52.268;6.770;2022-12-04T17:26:34;48.77;;;24.37;;
21352;SDS011;10834;52.268;6.770;2022-12-04T17:29:20;48.47;;;23.30;;
21352;SDS011;10834;52.268;6.770;2022-12-04T17:32:06;50.07;;;26.23;;
21352;SDS011;10834;52.268;6.770;2022-12-04T17:34:52;44.67;;;23.23;;
21352;SDS011;10834;52.268;6.770;2022-12-04T17:37:38;45.23;;;22.43;;
21352;SDS011;10834;52.268;6.770;2022-12-04T17:40:24;47.50;;;23.17;;
21352;SDS011;10834;52.268;6.770;2022-12-04T17:43:12;50.40;;;23.63;;
21352;SDS011;10834;52.268;6.770;2022-12-04T17:45:58;51.00;;;24.37;;
21352;SDS011;10834;52.268;6.770;2022-12-04T17:48:44;44.77;;;23.10;;
21352;SDS011;10834;52.268;6.770;2022-12-04T17:51:31;47.57;;;22.33;;
21352;SDS011;10834;52.268;6.770;2022-12-04T17:54:17;44.80;;;21.73;;
21352;SDS011;10834;52.268;6.770;2022-12-04T17:57:03;49.33;;;22.70;;
21352;SDS011;10834;52.268;6.770;2022-12-04T17:59:49;45.37;;;22.37;;
21352;SDS011;10834;52.268;6.770;2022-12-04T18:02:35;46.00;;;22.47;;
21352;SDS011;10834;52.268;6.770;2022-12-04T18:05:21;50.07;;;22.47;;
21352;SDS011;10834;52.268;6.770;2022-12-04T18:08:08;49.93;;;23.73;;
21352;SDS011;10834;52.268;6.770;2022-12-04T18:10:54;51.60;;;24.80;;
21352;SDS011;10834;52.268;6.770;2022-12-04T18:13:41;44.10;;;21.93;;
21352;SDS011;10834;52.268;6.770;2022-12-04T18:16:28;45.77;;;21.50;;
21352;SDS011;10834;52.268;6.770;2022-12-04T18:19:15;53.17;;;23.03;;
21352;SDS011;10834;52.268;6.770;2022-12-04T18:22:01;50.10;;;22.30;;
21352;SDS011;10834;52.268;6.770;2022-12-04T18:24:47;47.97;;;23.13;;
21352;SDS011;10834;52.268;6.770;2022-12-04T18:27:33;72.67;;;35.03;;
21352;SDS011;10834;52.268;6.770;2022-12-04T18:30:19;52.40;;;26.17;;
21352;SDS011;10834;52.268;6.770;2022-12-04T18:33:05;52.10;;;25.47;;
21352;SDS011;10834;52.268;6.770;2022-12-04T18:35:52;55.83;;;26.57;;